Time;durP1;ratioP1;P1;durP2;ratioP2;P2;SDS_P1;SDS_P2;PMS_P1;PMS_P2;Temp;Humidity;BMP_temperature;BMP_pressure;BME280_temperature;BME280_humidity;BME280_pressure;Samples;Min_cycle;Max_cycle;Signal;HPM_P1;HPM_P2
2022/05/13 00:00:12;;;;;;;32.47;17.27;;;18.60;99.90;;;;;;5092972;28;20183;-69
2022/05/13 00:02:41;;;;;;;35.77;18.50;;;18.60;99.90;;;;;;5096227;28;20187;-69
2022/05/13 00:05:09;;;;;;;35.80;18.23;;;18.60;99.90;;;;;;5093909;28;20563;-69
2022/05/13 00:07:39;;;;;;;31.30;15.07;;;18.60;99.90;;;;;;5096521;28;20169;-69
2022/05/13 00:10:07;;;;;;;24.97;13.90;;;18.70;99.90;;;;;;5095797;28;20178;-69
2022/05/13 00:12:43;;;;;;;22.17;11.00;;;18.70;99.90;;;;;;5095002;28;20175;-68
2022/05/13 00:15:18;;;;;;;24.50;11.97;;;18.80;99.90;;;;;;5108879;28;20214;-69
2022/05/13 00:17:47;;;;;;;18.77;11.20;;;18.70;99.90;;;;;;5095931;28;20185;-68
2022/05/13 00:20:16;;;;;;;18.53;9.43;;;18.80;99.90;;;;;;5096695;28;20179;-69
2022/05/13 00:22:54;;;;;;;13.67;8.33;;;18.70;99.90;;;;;;5096294;28;20175;-67
2022/05/13 00:25:28;;;;;;;13.63;8.80;;;18.80;99.90;;;;;;5096440;28;20640;-68
2022/05/13 00:28:01;;;;;;;15.03;9.83;;;18.80;99.90;;;;;;5095430;28;20183;-69
2022/05/13 00:30:35;;;;;;;21.23;11.03;;;18.80;99.90;;;;;;5095945;28;20644;-68
2022/05/13 00:33:02;;;;;;;19.77;11.23;;;18.80;99.90;;;;;;5096709;28;20712;-68
2022/05/13 00:35:31;;;;;;;24.23;14.53;;;18.80;99.90;;;;;;5094420;28;20624;-69
2022/05/13 00:37:59;;;;;;;24.83;15.03;;;18.80;99.90;;;;;;5097161;28;20202;-68
2022/05/13 00:40:28;;;;;;;23.93;15.37;;;18.80;99.90;;;;;;5097914;28;20194;-68
2022/05/13 00:43:03;;;;;;;26.43;16.57;;;18.90;99.90;;;;;;5095505;28;20545;-68
2022/05/13 00:45:31;;;;;;;23.23;15.13;;;18.90;99.90;;;;;;5095171;28;20557;-68
2022/05/13 00:47:59;;;;;;;20.57;13.77;;;18.90;99.90;;;;;;5099674;28;20170;-68
2022/05/13 00:50:30;;;;;;;20.83;13.57;;;18.80;99.90;;;;;;5100895;28;20175;-68
2022/05/13 00:52:57;;;;;;;21.87;14.90;;;18.90;99.90;;;;;;5079103;28;20195;-68
2022/05/13 00:55:45;;;;;;;23.07;15.00;;;18.90;99.90;;;;;;5079023;28;20240;-68
2022/05/13 00:58:20;;;;;;;23.10;14.97;;;19.00;99.90;;;;;;5099292;28;20510;-70
2022/05/13 01:00:48;;;;;;;24.73;15.63;;;19.00;99.90;;;;;;5095669;28;20233;-68
2022/05/13 01:03:15;;;;;;;23.53;16.60;;;19.00;99.90;;;;;;5093323;28;20208;-68
2022/05/13 01:05:45;;;;;;;27.53;16.77;;;19.00;99.90;;;;;;5098068;28;20205;-69
2022/05/13 01:08:14;;;;;;;28.67;17.07;;;19.00;99.90;;;;;;5098568;28;20211;-68
2022/05/13 01:10:45;;;;;;;28.30;17.20;;;19.00;99.90;;;;;;5098584;28;20179;-69
2022/05/13 01:13:20;;;;;;;32.37;17.40;;;19.00;99.90;;;;;;5099423;28;20179;-67
2022/05/13 01:15:49;;;;;;;30.83;17.77;;;19.10;99.90;;;;;;5097801;28;20240;-68
2022/05/13 01:18:31;;;;;;;34.83;20.63;;;19.10;99.90;;;;;;5098252;28;20266;-68
2022/05/13 01:21:00;;;;;;;33.17;19.60;;;19.10;99.90;;;;;;5098502;28;20548;-69
2022/05/13 01:23:33;;;;;;;37.10;20.13;;;19.10;99.90;;;;;;5098337;28;20167;-68
2022/05/13 01:26:06;;;;;;;28.50;19.77;;;19.20;99.90;;;;;;5098049;28;20198;-67
2022/05/13 01:28:39;;;;;;;35.87;19.87;;;19.30;99.90;;;;;;5098170;28;20168;-68
2022/05/13 01:31:14;;;;;;;33.93;19.20;;;19.30;99.90;;;;;;5097470;28;20183;-68
2022/05/13 01:33:42;;;;;;;35.07;19.43;;;19.40;99.90;;;;;;5098486;28;20639;-69
2022/05/13 01:36:12;;;;;;;32.43;17.10;;;19.50;99.90;;;;;;5098581;28;20563;-69
2022/05/13 01:38:44;;;;;;;26.73;14.50;;;19.70;99.90;;;;;;5096792;28;20226;-68
2022/05/13 01:41:14;;;;;;;23.20;14.40;;;19.90;99.90;;;;;;5097941;28;20195;-68
2022/05/13 01:43:43;;;;;;;22.10;11.43;;;20.00;99.90;;;;;;5097966;28;20569;-68
2022/05/13 01:46:11;;;;;;;22.63;10.77;;;20.10;99.90;;;;;;5097290;28;20180;-68
2022/05/13 01:48:39;;;;;;;16.93;9.63;;;20.30;99.90;;;;;;5076976;28;20263;-69
2022/05/13 01:51:08;;;;;;;11.67;6.40;;;20.40;99.90;;;;;;5075741;28;20176;-68
2022/05/13 01:53:36;;;;;;;12.43;7.10;;;20.70;99.90;;;;;;5074864;28;20188;-70
2022/05/13 01:56:06;;;;;;;11.37;7.67;;;21.00;99.90;;;;;;5077862;28;20243;-67
2022/05/13 01:58:34;;;;;;;16.17;7.50;;;21.30;99.90;;;;;;5091352;28;20188;-68
2022/05/13 02:01:05;;;;;;;16.03;6.27;;;21.40;99.90;;;;;;5097827;28;20174;-69
2022/05/13 02:03:45;;;;;;;10.10;5.30;;;21.70;99.90;;;;;;5098269;28;20176;-69
2022/05/13 02:06:22;;;;;;;9.67;4.53;;;21.90;99.90;;;;;;5097757;28;20175;-69
2022/05/13 02:08:52;;;;;;;10.80;5.00;;;21.80;99.90;;;;;;5097407;28;20214;-69
2022/05/13 02:11:22;;;;;;;14.27;5.57;;;22.00;99.90;;;;;;5096182;28;20195;-69
2022/05/13 02:13:51;;;;;;;8.17;5.07;;;22.20;99.90;;;;;;5097539;28;20210;-70
2022/05/13 02:16:20;;;;;;;11.37;4.47;;;22.20;99.90;;;;;;5097913;28;20175;-69
2022/05/13 02:18:49;;;;;;;10.57;4.80;;;22.00;99.90;;;;;;5096490;28;20194;-68
2022/05/13 02:21:21;;;;;;;8.10;4.20;;;21.70;99.90;;;;;;5096616;28;20667;-69
2022/05/13 02:23:48;;;;;;;8.03;3.60;;;21.60;99.90;;;;;;5096791;28;20199;-69
2022/05/13 02:26:17;;;;;;;7.13;3.77;;;21.40;99.90;;;;;;5097444;28;20190;-69
2022/05/13 02:28:45;;;;;;;8.73;3.33;;;21.30;99.90;;;;;;5096532;28;20211;-69
2022/05/13 02:31:16;;;;;;;5.30;3.30;;;21.20;99.90;;;;;;5097167;28;20252;-68
2022/05/13 02:33:44;;;;;;;4.20;3.13;;;21.30;99.90;;;;;;5095899;28;20191;-68
2022/05/13 02:36:13;;;;;;;6.37;2.70;;;21.40;99.90;;;;;;5095880;28;20224;-69
2022/05/13 02:38:44;;;;;;;6.50;2.97;;;21.40;99.90;;;;;;5096601;28;20633;-68
2022/05/13 02:41:11;;;;;;;4.87;2.77;;;21.40;99.90;;;;;;5096574;28;20179;-69
2022/05/13 02:43:53;;;;;;;4.47;2.40;;;21.50;99.90;;;;;;5095987;28;20178;-68
2022/05/13 02:46:32;;;;;;;3.80;2.57;;;21.50;99.90;;;;;;5099987;28;20193;-69
2022/05/13 02:49:03;;;;;;;4.53;2.27;;;21.40;99.90;;;;;;5095248;28;20217;-68
2022/05/13 02:51:30;;;;;;;2.37;1.93;;;21.40;99.90;;;;;;5096132;28;20198;-68
2022/05/13 02:53:59;;;;;;;5.10;2.60;;;21.30;99.90;;;;;;5095446;28;20278;-68
2022/05/13 02:56:26;;;;;;;5.33;2.83;;;21.30;99.90;;;;;;5094230;28;20235;-68
2022/05/13 02:58:53;;;;;;;3.30;2.20;;;21.20;99.90;;;;;;5094781;28;20171;-67
2022/05/13 03:01:25;;;;;;;2.90;1.67;;;21.20;99.90;;;;;;5094345;28;20175;-68
2022/05/13 03:03:53;;;;;;;3.93;2.03;;;21.20;99.90;;;;;;5097914;28;20178;-69
2022/05/13 03:06:21;;;;;;;3.57;1.97;;;21.30;99.90;;;;;;5097099;28;20189;-70
2022/05/13 03:08:49;;;;;;;3.70;1.97;;;21.20;99.90;;;;;;5098698;28;20251;-69
2022/05/13 03:11:17;;;;;;;4.03;2.20;;;21.20;99.90;;;;;;5095178;28;20599;-68
2022/05/13 03:13:44;;;;;;;3.23;1.90;;;21.20;99.90;;;;;;5094523;28;20180;-68
2022/05/13 03:16:17;;;;;;;2.33;1.83;;;21.20;99.90;;;;;;5094186;28;20186;-68
2022/05/13 03:18:49;;;;;;;5.13;1.87;;;21.30;99.90;;;;;;5094659;28;20265;-67
2022/05/13 03:21:17;;;;;;;4.07;2.20;;;21.40;99.90;;;;;;5093992;28;20202;-68
2022/05/13 03:23:46;;;;;;;5.10;1.77;;;21.40;99.90;;;;;;5092809;28;20266;-67
2022/05/13 03:26:21;;;;;;;4.30;2.17;;;21.50;99.90;;;;;;5092385;28;20190;-68
2022/05/13 03:28:50;;;;;;;3.10;2.00;;;21.50;99.90;;;;;;5092109;28;20185;-67
2022/05/13 03:31:18;;;;;;;2.20;1.43;;;21.60;99.90;;;;;;5091097;28;20190;-68
2022/05/13 03:33:47;;;;;;;3.07;1.70;;;21.60;99.90;;;;;;5093017;28;20190;-68
2022/05/13 03:36:17;;;;;;;4.07;1.70;;;21.60;99.90;;;;;;5093309;28;20183;-67
2022/05/13 03:38:44;;;;;;;4.27;1.50;;;21.60;99.90;;;;;;5093361;28;20175;-68
2022/05/13 03:41:12;;;;;;;3.33;2.03;;;21.60;99.90;;;;;;5092693;28;20186;-68
2022/05/13 03:43:40;;;;;;;3.77;1.20;;;21.60;99.90;;;;;;5092259;28;20575;-67
2022/05/13 03:46:07;;;;;;;5.10;2.00;;;21.50;99.90;;;;;;5091867;28;20274;-67
2022/05/13 03:48:35;;;;;;;3.03;1.50;;;21.60;99.90;;;;;;5093448;28;20186;-67
2022/05/13 03:51:03;;;;;;;3.70;1.90;;;21.60;99.90;;;;;;5093541;28;20254;-68
2022/05/13 03:53:31;;;;;;;11.47;1.90;;;21.60;99.90;;;;;;5093782;28;20201;-67
2022/05/13 03:56:00;;;;;;;3.93;2.00;;;21.60;99.90;;;;;;5093138;28;20763;-67
2022/05/13 03:58:28;;;;;;;4.03;2.10;;;21.60;99.90;;;;;;5093392;28;20178;-67
2022/05/13 04:00:55;;;;;;;5.97;2.43;;;21.70;99.90;;;;;;5092260;28;20670;-68
2022/05/13 04:03:22;;;;;;;2.53;1.63;;;21.60;99.90;;;;;;5093261;28;20190;-66
2022/05/13 04:16:04;;;;;;;6.43;2.50;;;21.50;99.90;;;;;;5093499;28;20237;-68
2022/05/13 04:17:16;;;;;;;1.87;1.27;;;21.50;99.90;;;;;;5097744;28;20182;-69
2022/05/13 04:19:45;;;;;;;6.50;1.90;;;21.50;99.90;;;;;;5097226;28;20184;-68
2022/05/13 04:22:15;;;;;;;6.27;1.83;;;21.50;99.90;;;;;;5094190;28;20288;-67
2022/05/13 04:24:42;;;;;;;3.60;1.80;;;21.70;99.90;;;;;;5096162;28;20554;-67
2022/05/13 04:27:12;;;;;;;5.47;2.23;;;21.80;99.90;;;;;;5097060;28;20207;-67
2022/05/13 04:29:40;;;;;;;5.47;2.23;;;22.20;99.90;;;;;;5097776;28;20221;-68
2022/05/13 04:32:11;;;;;;;6.07;2.77;;;23.00;99.90;;;;;;5097122;28;20183;-67
2022/05/13 04:34:38;;;;;;;6.20;2.73;;;23.60;99.90;;;;;;5097119;28;20232;-68
2022/05/13 04:37:06;;;;;;;7.07;3.10;;;24.20;99.90;;;;;;5098267;28;20206;-70
2022/05/13 04:39:33;;;;;;;7.80;3.07;;;24.20;99.90;;;;;;5097452;28;20182;-68
2022/05/13 04:44:47;;;;;;;4.53;2.07;;;24.60;99.90;;;;;;5097419;28;20667;-69
2022/05/13 04:50:00;;;;;;;3.23;1.40;;;24.30;99.90;;;;;;5092718;28;20244;-67
2022/05/13 04:52:28;;;;;;;5.07;1.40;;;25.10;99.90;;;;;;5098349;28;20257;-67
2022/05/13 04:54:55;;;;;;;3.10;1.40;;;25.60;99.90;;;;;;5096376;28;20243;-68
2022/05/13 04:57:24;;;;;;;4.07;1.40;;;25.20;99.90;;;;;;5097991;28;20233;-68
2022/05/13 04:59:52;;;;;;;6.67;1.63;;;25.50;99.90;;;;;;5098081;28;20194;-68
2022/05/13 05:02:19;;;;;;;2.97;1.43;;;25.70;99.90;;;;;;5098365;28;20179;-68
2022/05/13 05:04:47;;;;;;;2.00;1.30;;;25.30;99.90;;;;;;5098906;28;20190;-69
2022/05/13 05:07:16;;;;;;;2.53;1.53;;;25.60;99.90;;;;;;5099066;28;20290;-67
2022/05/13 05:09:43;;;;;;;4.40;1.50;;;25.60;99.90;;;;;;5098092;28;20303;-69
2022/05/13 05:12:11;;;;;;;1.93;1.17;;;25.10;99.90;;;;;;5097882;28;20632;-68
2022/05/13 05:14:39;;;;;;;3.73;1.63;;;25.30;99.90;;;;;;5098488;28;20207;-68
2022/05/13 05:17:07;;;;;;;2.30;1.33;;;25.20;99.90;;;;;;5097999;28;20655;-69
2022/05/13 05:19:35;;;;;;;4.30;1.30;;;25.50;99.90;;;;;;5097905;28;20183;-69
2022/05/13 05:22:05;;;;;;;3.90;1.57;;;25.40;99.90;;;;;;5095896;28;20612;-69
2022/05/13 05:24:34;;;;;;;3.67;1.43;;;24.90;99.90;;;;;;5096896;28;20624;-70
2022/05/13 05:27:02;;;;;;;3.70;1.10;;;24.30;99.90;;;;;;5099335;28;20640;-69
2022/05/13 05:29:32;;;;;;;2.90;1.30;;;23.80;99.90;;;;;;5099341;28;20167;-69
2022/05/13 05:31:59;;;;;;;2.30;1.47;;;23.40;99.90;;;;;;5097402;28;20682;-69
2022/05/13 05:34:30;;;;;;;3.10;1.40;;;22.70;99.90;;;;;;5097252;28;20271;-68
2022/05/13 05:36:58;;;;;;;2.60;1.20;;;22.50;99.90;;;;;;5097359;28;20278;-69
2022/05/13 05:39:30;;;;;;;3.03;1.40;;;22.30;99.90;;;;;;5098711;28;20175;-68
2022/05/13 05:42:00;;;;;;;1.47;1.20;;;22.20;99.90;;;;;;5095380;28;20195;-68
2022/05/13 05:44:30;;;;;;;2.60;1.37;;;22.10;99.90;;;;;;5096771;28;20182;-68
2022/05/13 05:47:00;;;;;;;3.53;1.23;;;22.00;99.90;;;;;;5096004;28;20178;-69
2022/05/13 05:49:29;;;;;;;5.67;1.40;;;22.00;99.90;;;;;;5096638;28;20174;-66
2022/05/13 05:51:57;;;;;;;2.53;1.57;;;22.00;99.90;;;;;;5096763;28;20675;-67
2022/05/13 05:57:17;;;;;;;4.13;1.03;;;22.00;99.90;;;;;;5096161;28;20333;-68
2022/05/13 05:59:48;;;;;;;1.60;0.90;;;22.10;99.90;;;;;;5097400;28;20607;-69
2022/05/13 06:02:20;;;;;;;1.40;0.90;;;22.10;99.90;;;;;;5095813;28;20229;-68
2022/05/13 06:04:48;;;;;;;4.30;1.37;;;22.00;99.90;;;;;;5096498;28;20276;-68
2022/05/13 06:07:19;;;;;;;4.50;1.50;;;21.80;99.90;;;;;;5096769;28;20184;-68
2022/05/13 06:09:50;;;;;;;3.43;1.60;;;21.60;99.90;;;;;;5094132;28;20198;-70
2022/05/13 06:12:18;;;;;;;2.43;1.30;;;21.50;99.90;;;;;;5093892;28;20657;-66
2022/05/13 06:14:46;;;;;;;4.00;1.40;;;21.30;99.90;;;;;;5096213;28;20219;-67
2022/05/13 06:17:14;;;;;;;3.40;1.50;;;21.30;99.90;;;;;;5096382;28;20186;-68
2022/05/13 06:19:43;;;;;;;2.83;1.80;;;21.20;99.90;;;;;;5097532;28;20187;-69
2022/05/13 06:22:12;;;;;;;4.07;1.67;;;21.10;99.90;;;;;;5094906;28;20185;-69
2022/05/13 06:24:40;;;;;;;2.40;1.30;;;21.20;99.90;;;;;;5097759;28;20222;-69
2022/05/13 06:27:09;;;;;;;5.00;1.50;;;21.20;99.90;;;;;;5097803;28;20691;-68
2022/05/13 06:29:37;;;;;;;1.97;1.30;;;21.10;99.90;;;;;;5096885;28;20198;-69
2022/05/13 06:32:08;;;;;;;5.10;1.60;;;21.00;99.90;;;;;;5097571;28;20183;-68
2022/05/13 06:34:38;;;;;;;5.77;1.77;;;21.00;99.90;;;;;;5078786;28;20592;-67
2022/05/13 06:37:11;;;;;;;1.97;1.30;;;21.00;99.90;;;;;;5092186;28;20235;-68
2022/05/13 06:39:41;;;;;;;5.80;1.83;;;20.90;99.90;;;;;;5095985;28;20184;-69
2022/05/13 06:42:09;;;;;;;5.67;1.53;;;20.90;99.90;;;;;;5088968;28;20523;-69
2022/05/13 06:44:37;;;;;;;5.20;1.80;;;20.80;99.90;;;;;;5074721;28;20223;-68
2022/05/13 06:47:05;;;;;;;3.57;1.57;;;20.80;99.90;;;;;;5063894;28;20183;-69
2022/05/13 06:49:33;;;;;;;3.60;1.67;;;20.70;99.90;;;;;;5093960;28;20183;-66
2022/05/13 06:52:02;;;;;;;4.47;1.57;;;20.60;99.90;;;;;;5094269;28;20186;-67
2022/05/13 06:54:33;;;;;;;3.87;1.70;;;20.50;99.90;;;;;;5095454;28;20595;-68
2022/05/13 06:57:01;;;;;;;5.93;1.40;;;20.40;99.90;;;;;;5094149;28;20709;-68
2022/05/13 06:59:31;;;;;;;2.33;1.27;;;20.30;99.90;;;;;;5095373;28;20189;-67
2022/05/13 07:01:59;;;;;;;3.60;1.47;;;20.30;99.90;;;;;;5094198;28;20205;-67
2022/05/13 07:04:26;;;;;;;3.47;1.10;;;20.30;99.90;;;;;;5096012;28;20282;-68
2022/05/13 07:06:54;;;;;;;2.13;1.03;;;20.20;99.90;;;;;;5094723;28;20187;-68
2022/05/13 07:09:22;;;;;;;4.07;1.20;;;20.20;99.90;;;;;;5096365;28;20176;-68
2022/05/13 07:11:51;;;;;;;5.27;1.90;;;20.10;99.90;;;;;;5095687;28;20191;-68
2022/05/13 07:14:18;;;;;;;5.30;3.00;;;20.00;99.90;;;;;;5095050;28;20195;-68
2022/05/13 07:16:49;;;;;;;4.33;3.27;;;19.90;99.90;;;;;;5092586;28;20642;-68
2022/05/13 07:19:17;;;;;;;4.10;2.23;;;19.80;99.90;;;;;;5091968;28;20650;-69
2022/05/13 07:21:46;;;;;;;3.03;1.20;;;19.80;99.90;;;;;;5093634;28;20214;-68
2022/05/13 07:24:14;;;;;;;2.43;2.00;;;19.80;99.90;;;;;;5093798;28;20706;-67
2022/05/13 07:26:43;;;;;;;4.07;1.70;;;19.70;99.90;;;;;;5092697;28;20188;-67
2022/05/13 07:29:11;;;;;;;5.07;4.00;;;19.60;99.90;;;;;;5094584;28;20633;-67
2022/05/13 07:31:39;;;;;;;7.50;4.00;;;19.50;99.90;;;;;;5092197;28;20725;-68
2022/05/13 07:34:07;;;;;;;9.67;6.03;;;19.40;99.90;;;;;;5091832;28;20248;-67
2022/05/13 07:36:36;;;;;;;5.27;2.87;;;19.30;99.90;;;;;;5090273;28;20192;-68
2022/05/13 07:41:51;;;;;;;3.53;2.10;;;19.10;99.90;;;;;;5078016;28;20194;-67
2022/05/13 07:44:19;;;;;;;2.63;1.50;;;19.10;99.90;;;;;;5091523;28;20697;-68
2022/05/13 07:46:46;;;;;;;3.90;1.60;;;19.00;99.90;;;;;;5091099;28;20662;-67
2022/05/13 07:49:15;;;;;;;4.63;1.67;;;18.90;99.90;;;;;;5093151;28;20262;-68
2022/05/13 07:51:43;;;;;;;3.67;1.77;;;18.90;99.90;;;;;;5091705;28;20240;-68
2022/05/13 07:54:11;;;;;;;2.50;1.50;;;18.80;99.90;;;;;;5091028;28;20202;-68
2022/05/13 07:56:39;;;;;;;2.77;1.50;;;18.70;99.90;;;;;;5091573;28;20227;-67
2022/05/13 07:59:06;;;;;;;5.93;1.40;;;18.60;99.90;;;;;;5091547;28;20188;-67
2022/05/13 08:01:34;;;;;;;4.90;2.20;;;18.70;99.90;;;;;;5090741;28;20176;-67
2022/05/13 08:04:02;;;;;;;4.37;1.60;;;18.60;99.90;;;;;;5091369;28;20183;-68
2022/05/13 08:06:30;;;;;;;9.13;1.87;;;18.70;99.90;;;;;;5091393;28;20183;-69
2022/05/13 08:08:58;;;;;;;6.30;2.40;;;18.60;99.90;;;;;;5091573;28;20318;-67
2022/05/13 08:11:30;;;;;;;6.03;2.57;;;18.60;99.90;;;;;;5091945;28;20171;-67
2022/05/13 08:13:59;;;;;;;4.90;1.67;;;18.50;99.90;;;;;;5091506;28;20200;-68
2022/05/13 08:16:29;;;;;;;3.67;1.60;;;18.50;99.90;;;;;;5090460;28;20226;-68
2022/05/13 08:18:58;;;;;;;3.00;2.00;;;18.40;99.90;;;;;;5091826;28;20175;-69
2022/05/13 08:21:26;;;;;;;5.83;2.00;;;18.30;99.90;;;;;;5091787;28;20276;-68
2022/05/13 08:23:54;;;;;;;4.17;2.17;;;18.30;99.90;;;;;;5092014;28;20684;-68
2022/05/13 08:26:21;;;;;;;3.17;1.80;;;18.20;99.90;;;;;;5091691;28;20178;-68
2022/05/13 08:28:49;;;;;;;4.13;2.20;;;18.20;99.90;;;;;;5091842;28;20645;-68
2022/05/13 08:31:17;;;;;;;2.77;1.90;;;18.10;99.90;;;;;;5091646;28;20185;-68
2022/05/13 08:33:44;;;;;;;7.80;2.63;;;18.10;99.90;;;;;;5091389;28;20256;-68
2022/05/13 08:36:12;;;;;;;3.07;1.90;;;18.10;99.90;;;;;;5090982;28;20660;-68
2022/05/13 08:38:43;;;;;;;5.07;2.80;;;18.20;99.90;;;;;;5091594;28;20180;-68
2022/05/13 08:41:10;;;;;;;3.70;2.37;;;18.20;99.90;;;;;;5091262;28;20659;-68
2022/05/13 08:44:01;;;;;;;8.33;2.50;;;18.30;99.90;;;;;;5091211;28;20183;-67
2022/05/13 08:46:55;;;;;;;4.03;2.60;;;18.40;99.90;;;;;;5080488;28;20213;-68
2022/05/13 08:49:44;;;;;;;7.33;2.63;;;18.60;99.90;;;;;;5091381;28;20179;-69
2022/05/13 08:55:22;;;;;;;6.17;2.80;;;18.60;99.90;;;;;;5091276;28;20264;-68
2022/05/13 08:57:50;;;;;;;7.67;2.53;;;18.60;99.90;;;;;;5089215;28;20751;-68
2022/05/13 09:00:37;;;;;;;5.73;2.40;;;18.60;99.90;;;;;;5094419;28;20179;-68
2022/05/13 09:03:13;;;;;;;8.37;2.37;;;18.50;99.90;;;;;;5095167;28;20178;-68
2022/05/13 09:05:51;;;;;;;6.87;2.67;;;18.50;99.90;;;;;;5095074;28;20182;-68
2022/05/13 09:08:20;;;;;;;6.00;2.70;;;18.40;99.90;;;;;;5095066;28;20179;-67
2022/05/13 09:11:25;;;;;;;4.13;2.70;;;18.30;99.90;;;;;;5094880;28;20175;-68
2022/05/13 09:14:25;;;;;;;6.53;2.50;;;18.30;99.90;;;;;;5094859;28;20179;-68
2022/05/13 09:17:30;;;;;;;3.77;2.50;;;18.20;99.90;;;;;;5094881;28;20186;-66
2022/05/13 09:20:10;;;;;;;5.60;3.07;;;18.10;99.90;;;;;;5082077;28;20190;-67
2022/05/13 09:22:45;;;;;;;5.37;3.20;;;18.10;99.90;;;;;;5094564;28;20724;-68
2022/05/13 09:25:35;;;;;;;5.53;3.07;;;18.00;99.90;;;;;;5093869;28;20175;-68
2022/05/13 09:28:16;;;;;;;7.73;4.50;;;18.00;99.90;;;;;;5092823;28;20199;-68
2022/05/13 09:30:50;;;;;;;5.43;3.60;;;18.00;99.90;;;;;;5094099;28;20175;-68
2022/05/13 09:33:35;;;;;;;4.03;3.60;;;17.90;99.90;;;;;;5095928;28;20612;-70
2022/05/13 09:36:28;;;;;;;8.53;3.90;;;17.90;99.90;;;;;;5096534;28;20237;-68
2022/05/13 09:38:59;;;;;;;6.20;3.40;;;17.80;99.90;;;;;;5097049;28;20637;-67
2022/05/13 09:41:37;;;;;;;6.00;3.63;;;17.80;99.90;;;;;;5096616;28;20186;-67
2022/05/13 09:44:18;;;;;;;4.87;3.70;;;17.70;99.90;;;;;;5095251;28;20195;-67
2022/05/13 09:46:50;;;;;;;6.00;3.70;;;17.70;99.90;;;;;;5096402;28;20187;-68
2022/05/13 09:49:23;;;;;;;5.33;3.53;;;17.60;99.90;;;;;;5094927;28;20187;-67
2022/05/13 09:52:08;;;;;;;7.70;4.77;;;17.60;99.90;;;;;;5096379;28;20629;-67
2022/05/13 09:54:39;;;;;;;8.40;5.00;;;17.60;99.90;;;;;;5096977;28;20210;-67
2022/05/13 09:57:20;;;;;;;9.20;4.60;;;17.60;99.90;;;;;;5097625;28;20309;-68
2022/05/13 09:59:59;;;;;;;5.97;4.40;;;17.50;99.90;;;;;;5099296;28;20178;-68
2022/05/13 10:02:35;;;;;;;6.50;4.50;;;17.50;99.90;;;;;;5098541;28;20178;-68
2022/05/13 10:05:33;;;;;;;10.37;5.83;;;17.40;99.90;;;;;;5097752;28;20270;-68
2022/05/13 10:08:08;;;;;;;8.70;5.10;;;17.50;99.90;;;;;;5093995;28;20654;-69
2022/05/13 10:14:03;;;;;;;7.87;5.10;;;17.40;99.90;;;;;;5095922;28;20252;-68
2022/05/13 10:16:46;;;;;;;9.27;4.93;;;17.40;99.90;;;;;;5096515;28;20191;-69
2022/05/13 10:19:31;;;;;;;9.87;5.17;;;17.30;99.90;;;;;;5097515;28;20234;-69
2022/05/13 10:22:27;;;;;;;7.40;5.00;;;17.30;99.90;;;;;;5097413;28;20206;-68
2022/05/13 10:25:20;;;;;;;8.13;6.63;;;17.30;99.90;;;;;;5096911;28;20194;-68
2022/05/13 10:28:11;;;;;;;13.60;7.43;;;17.40;99.90;;;;;;5096324;28;20192;-68
2022/05/13 10:31:25;;;;;;;15.80;6.33;;;17.50;99.90;;;;;;5096972;28;20171;-68
2022/05/13 10:34:22;;;;;;;9.67;6.57;;;17.40;99.90;;;;;;5087946;28;20715;-69
2022/05/13 10:37:21;;;;;;;9.67;6.83;;;17.40;99.90;;;;;;5090764;28;20687;-69
2022/05/13 10:40:01;;;;;;;15.30;7.40;;;17.30;99.90;;;;;;5095993;28;20645;-68
2022/05/13 10:42:52;;;;;;;10.50;5.97;;;17.30;99.90;;;;;;5097268;28;20182;-68
2022/05/13 10:45:25;;;;;;;9.43;6.13;;;17.30;99.90;;;;;;5095958;28;20691;-69
2022/05/13 10:48:24;;;;;;;8.10;5.50;;;17.20;99.90;;;;;;5096454;28;20190;-69
2022/05/13 10:51:36;;;;;;;8.27;6.27;;;17.20;99.90;;;;;;5096498;28;20262;-68
2022/05/13 10:54:16;;;;;;;8.03;5.80;;;17.30;99.90;;;;;;5095019;28;20179;-68
2022/05/13 10:57:10;;;;;;;8.47;6.20;;;17.40;99.90;;;;;;5098593;28;20230;-69
2022/05/13 11:00:14;;;;;;;9.27;6.20;;;17.40;99.90;;;;;;5101194;28;20198;-67
2022/05/13 11:02:46;;;;;;;9.70;6.40;;;17.50;99.90;;;;;;5096992;28;20649;-68
2022/05/13 11:05:32;;;;;;;12.03;8.70;;;17.40;99.90;;;;;;5095835;28;20240;-69
2022/05/13 11:08:38;;;;;;;17.93;9.87;;;17.50;99.90;;;;;;5097102;28;20183;-68
2022/05/13 11:11:34;;;;;;;15.57;9.90;;;17.60;99.90;;;;;;5097282;28;20197;-68
2022/05/13 11:14:26;;;;;;;20.10;10.10;;;17.70;99.90;;;;;;5095916;28;20250;-68
2022/05/13 11:16:59;;;;;;;17.63;10.40;;;17.70;99.90;;;;;;5094802;28;20896;-68
2022/05/13 11:20:21;;;;;;;16.07;11.17;;;17.70;99.90;;;;;;5096773;28;20193;-68
2022/05/13 11:23:05;;;;;;;15.10;9.43;;;17.70;99.90;;;;;;5055488;28;20665;-68
2022/05/13 11:25:59;;;;;;;15.90;9.37;;;17.70;99.90;;;;;;5054582;28;20188;-68
2022/05/13 11:28:32;;;;;;;15.40;9.23;;;17.80;99.90;;;;;;5054175;28;20184;-68
2022/05/13 11:31:10;;;;;;;13.33;8.17;;;17.80;99.90;;;;;;5054357;28;20213;-68
2022/05/13 11:34:10;;;;;;;14.00;8.70;;;17.90;99.90;;;;;;5062689;28;20184;-69
2022/05/13 11:37:04;;;;;;;13.93;8.57;;;17.90;99.90;;;;;;5089276;28;20664;-68
2022/05/13 11:39:55;;;;;;;8.77;7.40;;;17.90;99.90;;;;;;5096619;28;20182;-69
2022/05/13 11:46:02;;;;;;;16.37;7.77;;;18.00;99.90;;;;;;5083743;28;20190;-67
2022/05/13 11:48:39;;;;;;;11.70;7.87;;;18.00;99.90;;;;;;5096436;28;20185;-68
2022/05/13 11:51:17;;;;;;;20.70;9.00;;;17.90;99.90;;;;;;5096307;28;20158;-68
2022/05/13 11:54:01;;;;;;;12.40;8.43;;;18.00;99.90;;;;;;5096219;28;20699;-70
2022/05/13 11:56:34;;;;;;;14.03;8.27;;;18.00;99.90;;;;;;5095715;28;20632;-70
2022/05/13 11:59:32;;;;;;;14.43;8.90;;;18.00;99.90;;;;;;5096540;28;20175;-68
2022/05/13 12:02:46;;;;;;;12.67;8.33;;;17.90;99.90;;;;;;5095079;28;20593;-68
2022/05/13 12:05:38;;;;;;;13.37;9.63;;;18.00;99.90;;;;;;5094283;28;20171;-68
2022/05/13 12:08:17;;;;;;;12.83;8.57;;;18.00;99.90;;;;;;5094256;28;20194;-68
2022/05/13 12:11:03;;;;;;;18.07;9.03;;;18.10;99.90;;;;;;5095914;28;20636;-68
2022/05/13 12:13:48;;;;;;;13.37;9.00;;;18.10;99.90;;;;;;5095718;28;20221;-69
2022/05/13 12:16:40;;;;;;;12.80;8.57;;;18.10;99.90;;;;;;5095825;28;20226;-68
2022/05/13 12:19:17;;;;;;;12.57;9.23;;;18.10;99.90;;;;;;5095652;28;20189;-69
2022/05/13 12:22:22;;;;;;;14.37;9.77;;;18.10;99.90;;;;;;5096572;28;20636;-68
2022/05/13 12:25:01;;;;;;;17.10;10.13;;;18.10;99.90;;;;;;5086185;28;20199;-68
2022/05/13 12:28:15;;;;;;;13.30;9.77;;;18.10;99.90;;;;;;5094784;28;20195;-68
2022/05/13 12:30:49;;;;;;;15.53;9.43;;;18.10;99.90;;;;;;5033830;28;20235;-68
2022/05/13 12:39:13;;;;;;;16.83;8.37;;;18.10;99.90;;;;;;5100088;28;20220;-69
2022/05/13 12:41:43;;;;;;;15.53;9.43;;;18.00;99.90;;;;;;5099967;28;20172;-69
2022/05/13 12:44:32;;;;;;;10.53;8.63;;;18.00;99.90;;;;;;5102004;28;20179;-68
2022/05/13 12:47:17;;;;;;;16.37;9.67;;;18.00;99.90;;;;;;5103114;28;20214;-69
2022/05/13 12:49:59;;;;;;;16.30;10.37;;;18.00;99.90;;;;;;5100026;28;20223;-68
2022/05/13 12:52:41;;;;;;;11.83;8.77;;;18.00;99.90;;;;;;5098342;28;20179;-68
2022/05/13 12:55:23;;;;;;;14.67;10.13;;;18.00;99.90;;;;;;5097077;28;20245;-68
2022/05/13 12:57:59;;;;;;;13.97;9.93;;;18.00;99.90;;;;;;5095691;28;20310;-69
2022/05/13 13:00:41;;;;;;;13.17;9.33;;;18.00;99.90;;;;;;5097080;28;20248;-67
2022/05/13 13:03:14;;;;;;;10.07;7.47;;;18.00;99.90;;;;;;5098642;28;20174;-68
2022/05/13 13:05:48;;;;;;;10.70;8.43;;;18.00;99.90;;;;;;5098290;28;20187;-68
2022/05/13 13:08:23;;;;;;;9.47;7.73;;;18.10;99.90;;;;;;5097642;28;20177;-68
2022/05/13 13:11:05;;;;;;;12.30;7.87;;;18.10;99.90;;;;;;5097078;28;20278;-68
2022/05/13 13:13:49;;;;;;;13.63;8.47;;;18.10;99.90;;;;;;5096952;28;20183;-69
2022/05/13 13:16:58;;;;;;;10.00;8.00;;;18.00;99.90;;;;;;5097962;28;20258;-68
2022/05/13 13:19:30;;;;;;;15.93;9.67;;;18.00;99.90;;;;;;5078609;28;20187;-68
2022/05/13 13:22:12;;;;;;;13.63;9.67;;;18.10;99.90;;;;;;5101669;28;20186;-69
2022/05/13 13:24:43;;;;;;;13.37;9.90;;;18.10;99.90;;;;;;5103143;28;20247;-69
2022/05/13 13:27:17;;;;;;;16.23;10.97;;;18.10;99.90;;;;;;5100624;28;20214;-68
2022/05/13 13:29:48;;;;;;;14.67;10.00;;;18.10;99.90;;;;;;5099114;28;20221;-69
2022/05/13 13:32:23;;;;;;;17.67;11.97;;;18.10;99.90;;;;;;5098014;28;20198;-69
2022/05/13 13:34:54;;;;;;;13.93;10.53;;;18.10;99.90;;;;;;5096956;28;20239;-69
2022/05/13 13:37:38;;;;;;;14.33;10.40;;;18.00;99.90;;;;;;5097294;28;20648;-69
2022/05/13 13:40:28;;;;;;;14.90;9.73;;;18.00;99.90;;;;;;5097285;28;20243;-68
2022/05/13 13:43:14;;;;;;;12.80;9.43;;;18.00;99.90;;;;;;5096857;28;20201;-70
2022/05/13 13:45:48;;;;;;;16.53;10.93;;;18.00;99.90;;;;;;5095588;28;20175;-68
2022/05/13 13:48:40;;;;;;;11.37;8.70;;;18.00;99.90;;;;;;5096292;28;20561;-68
2022/05/13 13:51:15;;;;;;;17.60;10.03;;;18.00;99.90;;;;;;5080958;28;20241;-69
2022/05/13 13:53:45;;;;;;;14.33;9.63;;;18.00;99.90;;;;;;5096879;28;20224;-69